Time,TemperatureF,DewpointF,PressureIn,WindDirection,WindDirectionDegrees,WindSpeedMPH,WindSpeedGustMPH,Humidity,HourlyPrecipIn,Conditions,Clouds,dailyrainin,SoftwareType,DateUTC
2013-06-03 00:00:00,56.0,49.2,29.93,NNW,338,5.0,6.0,78,0.00,,,0.00,Wunderground v.1.15,2013-06-03 04:00:00,
2013-06-03 00:05:00,56.0,49.2,29.94,NNW,333,5.0,6.0,78,0.00,,,0.00,Wunderground v.1.15,2013-06-03 04:05:00,
2013-06-03 00:10:00,56.1,49.0,29.94,NNW,329,5.0,6.0,77,0.00,,,0.00,Wunderground v.1.15,2013-06-03 04:10:00,
2013-06-03 00:20:00,56.1,49.0,29.94,NNW,330,6.0,6.0,77,0.00,,,0.00,Wunderground v.1.15,2013-06-03 04:20:00,
2013-06-03 00:25:00,56.1,49.3,29.94,NW,326,6.0,7.0,78,0.00,,,0.00,Wunderground v.1.15,2013-06-03 04:25:00,
2013-06-03 00:30:00,56.1,48.6,29.94,NNW,342,6.0,6.0,76,0.00,,,0.00,Wunderground v.1.15,2013-06-03 04:30:00,
2013-06-03 00:35:00,56.0,48.5,29.94,NNW,344,5.0,6.0,76,0.00,,,0.00,Wunderground v.1.15,2013-06-03 04:35:00,
2013-06-03 00:40:00,56.0,48.9,29.94,NNW,338,5.0,5.0,77,0.00,,,0.00,Wunderground v.1.15,2013-06-03 04:40:00,
2013-06-03 00:45:00,55.9,48.4,29.94,NNW,332,6.0,6.0,76,0.00,,,0.00,Wunderground v.1.15,2013-06-03 04:45:00,
2013-06-03 00:50:00,55.9,48.8,29.94,NNW,331,6.0,6.0,77,0.00,,,0.00,Wunderground v.1.15,2013-06-03 04:50:00,
2013-06-03 01:00:00,55.8,48.3,29.94,NW,325,5.0,5.0,76,0.00,,,0.00,Wunderground v.1.15,2013-06-03 05:00:00,
2013-06-03 01:05:00,55.7,48.2,29.94,North,355,5.0,5.0,76,0.00,,,0.00,Wunderground v.1.15,2013-06-03 05:05:00,
2013-06-03 01:10:00,55.6,48.2,29.94,NNW,345,5.0,5.0,76,0.00,,,0.00,Wunderground v.1.15,2013-06-03 05:10:00,
2013-06-03 01:15:00,55.6,48.5,29.94,NW,321,5.0,8.0,77,0.00,,,0.00,Wunderground v.1.15,2013-06-03 05:15:00,
2013-06-03 01:25:00,55.5,47.7,29.94,North,360,7.0,8.0,75,0.00,,,0.00,Wunderground v.1.15,2013-06-03 05:25:00,
2013-06-03 01:30:00,55.3,47.2,29.95,North,355,7.0,7.0,74,0.00,,,0.00,Wunderground v.1.15,2013-06-03 05:30:00,
2013-06-03 01:40:00,55.1,46.6,29.95,NNW,340,8.0,10.0,73,0.00,,,0.00,Wunderground v.1.15,2013-06-03 05:40:00,
2013-06-03 01:45:00,55.0,46.5,29.95,North,5,8.0,10.0,73,0.00,,,0.00,Wunderground v.1.15,2013-06-03 05:45:00,
2013-06-03 01:50:00,54.8,46.7,29.95,North,9,8.0,8.0,74,0.00,,,0.00,Wunderground v.1.15,2013-06-03 05:50:00,
2013-06-03 01:55:00,54.6,46.5,29.95,North,5,7.0,10.0,74,0.00,,,0.00,Wunderground v.1.15,2013-06-03 05:55:00,
2013-06-03 02:00:00,54.5,46.0,29.95,NNE,26,8.0,11.0,73,0.00,,,0.00,Wunderground v.1.15,2013-06-03 06:00:00,
2013-06-03 02:10:00,54.3,45.8,29.95,North,350,9.0,9.0,73,0.00,,,0.00,Wunderground v.1.15,2013-06-03 06:10:00,
2013-06-03 02:15:00,54.2,45.7,29.95,North,360,9.0,9.0,73,0.00,,,0.00,Wunderground v.1.15,2013-06-03 06:15:00,
2013-06-03 02:20:00,54.0,45.5,29.95,North,360,8.0,9.0,73,0.00,,,0.00,Wunderground v.1.15,2013-06-03 06:20:00,
2013-06-03 02:25:00,53.9,45.4,29.95,North,5,8.0,9.0,73,0.00,,,0.00,Wunderground v.1.15,2013-06-03 06:25:00,
2013-06-03 02:30:00,53.9,45.4,29.95,North,355,8.0,8.0,73,0.00,,,0.00,Wunderground v.1.15,2013-06-03 06:30:00,
2013-06-03 02:35:00,53.7,45.6,29.96,North,360,7.0,10.0,74,0.00,,,0.00,Wunderground v.1.15,2013-06-03 06:35:00,
2013-06-03 02:40:00,53.6,45.5,29.96,North,5,7.0,7.0,74,0.00,,,0.00,Wunderground v.1.15,2013-06-03 06:40:00,
2013-06-03 02:45:00,53.5,45.4,29.96,NNW,346,7.0,7.0,74,0.00,,,0.00,Wunderground v.1.15,2013-06-03 06:45:00,
2013-06-03 02:50:00,53.4,45.0,29.96,NNW,338,7.0,7.0,73,0.00,,,0.00,Wunderground v.1.15,2013-06-03 06:50:00,
2013-06-03 03:00:00,53.2,44.8,29.96,North,350,7.0,9.0,73,0.00,,,0.00,Wunderground v.1.15,2013-06-03 07:00:00,
2013-06-03 03:10:00,53.1,45.0,29.96,NNW,340,7.0,8.0,74,0.00,,,0.00,Wunderground v.1.15,2013-06-03 07:10:00,
2013-06-03 03:20:00,52.9,45.2,29.96,NW,323,7.0,11.0,75,0.00,,,0.00,Wunderground v.1.15,2013-06-03 07:20:00,
2013-06-03 03:25:00,52.8,44.7,29.96,NNW,337,8.0,11.0,74,0.00,,,0.00,Wunderground v.1.15,2013-06-03 07:25:00,
2013-06-03 03:30:00,52.8,44.7,29.96,NNW,336,8.0,11.0,74,0.00,,,0.00,Wunderground v.1.15,2013-06-03 07:30:00,
2013-06-03 03:35:00,52.7,45.0,29.96,NNW,336,8.0,11.0,75,0.00,,,0.00,Wunderground v.1.15,2013-06-03 07:35:00,
2013-06-03 03:40:00,52.7,45.0,29.97,NW,321,7.0,7.0,75,0.00,,,0.00,Wunderground v.1.15,2013-06-03 07:40:00,
2013-06-03 03:50:00,52.6,44.5,29.97,NW,317,7.0,8.0,74,0.00,,,0.00,Wunderground v.1.15,2013-06-03 07:50:00,
2013-06-03 04:00:00,52.5,44.4,29.97,NNW,334,7.0,7.0,74,0.00,,,0.00,Wunderground v.1.15,2013-06-03 08:00:00,
2013-06-03 04:10:00,52.4,44.4,29.97,NNW,327,7.0,7.0,74,0.00,,,0.00,Wunderground v.1.15,2013-06-03 08:10:00,
2013-06-03 04:20:00,52.3,44.6,29.97,NNW,328,6.0,7.0,75,0.00,,,0.00,Wunderground v.1.15,2013-06-03 08:20:00,
2013-06-03 04:25:00,52.3,44.6,29.97,NW,312,7.0,10.0,75,0.00,,,0.00,Wunderground v.1.15,2013-06-03 08:25:00,
2013-06-03 04:30:00,52.2,44.5,29.97,NW,306,8.0,8.0,75,0.00,,,0.00,Wunderground v.1.15,2013-06-03 08:30:00,
2013-06-03 04:35:00,52.1,44.8,29.97,NW,319,8.0,8.0,76,0.00,,,0.00,Wunderground v.1.15,2013-06-03 08:35:00,
2013-06-03 04:40:00,52.1,44.8,29.98,NW,316,6.0,6.0,76,0.00,,,0.00,Wunderground v.1.15,2013-06-03 08:40:00,
2013-06-03 04:45:00,52.0,45.0,29.98,NW,325,5.0,6.0,77,0.00,,,0.00,Wunderground v.1.15,2013-06-03 08:45:00,
2013-06-03 04:55:00,51.9,44.6,29.98,NNW,344,7.0,7.0,76,0.00,,,0.00,Wunderground v.1.15,2013-06-03 08:55:00,
2013-06-03 05:00:00,51.8,44.5,29.98,NNW,339,7.0,7.0,76,0.00,,,0.00,Wunderground v.1.15,2013-06-03 09:00:00,
2013-06-03 05:10:00,51.6,43.9,29.98,North,9,7.0,7.0,75,0.00,,,0.00,Wunderground v.1.15,2013-06-03 09:10:00,
2013-06-03 05:15:00,51.5,44.2,29.98,NNW,344,7.0,7.0,76,0.00,,,0.00,Wunderground v.1.15,2013-06-03 09:15:00,
2013-06-03 05:20:00,51.3,44.0,29.98,NNW,336,7.0,7.0,76,0.00,,,0.00,Wunderground v.1.15,2013-06-03 09:20:00,
2013-06-03 05:25:00,51.1,43.8,29.98,North,360,7.0,11.0,76,0.00,,,0.00,Wunderground v.1.15,2013-06-03 09:25:00,
2013-06-03 05:30:00,50.8,43.2,29.99,NNW,348,8.0,9.0,75,0.00,,,0.00,Wunderground v.1.15,2013-06-03 09:30:00,
2013-06-03 05:35:00,50.5,42.9,29.99,NNW,344,9.0,9.0,75,0.00,,,0.00,Wunderground v.1.15,2013-06-03 09:35:00,
2013-06-03 05:45:00,49.8,42.2,30.00,NNW,346,8.0,10.0,75,0.00,,,0.00,Wunderground v.1.15,2013-06-03 09:45:00,
2013-06-03 05:50:00,49.5,42.2,30.00,North,5,7.0,7.0,76,0.00,,,0.00,Wunderground v.1.15,2013-06-03 09:50:00,
2013-06-03 06:00:00,48.8,41.6,30.00,North,360,6.0,6.0,76,0.00,,,0.00,Wunderground v.1.15,2013-06-03 10:00:00,
2013-06-03 06:10:00,48.3,41.8,30.00,NNW,346,5.0,5.0,78,0.00,,,0.00,Wunderground v.1.15,2013-06-03 10:10:00,
2013-06-03 06:20:00,47.9,41.7,30.00,NNW,337,4.0,6.0,79,0.00,,,0.00,Wunderground v.1.15,2013-06-03 10:20:00,
2013-06-03 06:25:00,47.6,41.4,30.00,NNW,338,5.0,7.0,79,0.00,,,0.00,Wunderground v.1.15,2013-06-03 10:25:00,
2013-06-03 06:35:00,47.2,41.3,30.00,NNW,346,6.0,8.0,80,0.00,,,0.00,Wunderground v.1.15,2013-06-03 10:35:00,
2013-06-03 06:45:00,47.3,41.4,30.00,NNW,342,6.0,6.0,80,0.00,,,0.00,Wunderground v.1.15,2013-06-03 10:45:00,
2013-06-03 06:50:00,47.4,41.5,30.01,NNW,346,6.0,6.0,80,0.00,,,0.00,Wunderground v.1.15,2013-06-03 10:50:00,
2013-06-03 07:00:00,47.3,41.1,30.01,NW,325,6.0,6.0,79,0.00,,,0.00,Wunderground v.1.15,2013-06-03 11:00:00,
2013-06-03 07:10:00,47.5,41.6,30.01,NNW,331,7.0,8.0,80,0.00,,,0.00,Wunderground v.1.15,2013-06-03 11:10:00,
2013-06-03 07:15:00,47.7,41.8,30.01,NNW,340,8.0,9.0,80,0.00,,,0.00,Wunderground v.1.15,2013-06-03 11:15:00,
2013-06-03 07:25:00,47.8,41.9,30.02,NNW,330,6.0,7.0,80,0.00,,,0.00,Wunderground v.1.15,2013-06-03 11:25:00,
2013-06-03 07:35:00,48.8,42.9,30.02,North,351,4.0,6.0,80,0.00,,,0.00,Wunderground v.1.15,2013-06-03 11:35:00,
2013-06-03 07:40:00,49.4,42.8,30.02,NNW,344,4.0,5.0,78,0.00,,,0.00,Wunderground v.1.15,2013-06-03 11:40:00,
2013-06-03 07:50:00,50.0,43.1,30.02,North,355,5.0,5.0,77,0.00,,,0.00,Wunderground v.1.15,2013-06-03 11:50:00,
2013-06-03 08:00:00,50.8,43.5,30.02,North,355,5.0,5.0,76,0.00,,,0.00,Wunderground v.1.15,2013-06-03 12:00:00,
2013-06-03 08:10:00,51.2,43.5,30.02,NNW,340,6.0,7.0,75,0.00,,,0.00,Wunderground v.1.15,2013-06-03 12:10:00,
2013-06-03 08:15:00,51.4,43.4,30.02,NNW,342,6.0,7.0,74,0.00,,,0.00,Wunderground v.1.15,2013-06-03 12:15:00,
2013-06-03 08:25:00,52.1,44.1,30.02,NNW,343,5.0,6.0,74,0.00,,,0.00,Wunderground v.1.15,2013-06-03 12:25:00,
2013-06-03 08:30:00,52.3,43.5,30.02,North,5,5.0,5.0,72,0.00,,,0.00,Wunderground v.1.15,2013-06-03 12:30:00,
2013-06-03 08:35:00,52.8,44.7,30.02,North,350,4.0,5.0,74,0.00,,,0.00,Wunderground v.1.15,2013-06-03 12:35:00,
2013-06-03 08:45:00,53.5,44.0,30.02,NNE,32,4.0,5.0,70,0.00,,,0.00,Wunderground v.1.15,2013-06-03 12:45:00,
2013-06-03 08:55:00,54.5,44.5,30.02,NNE,33,4.0,5.0,69,0.00,,,0.00,Wunderground v.1.15,2013-06-03 12:55:00,
2013-06-03 09:00:00,55.1,43.9,30.03,NNW,335,4.0,5.0,66,0.00,,,0.00,Wunderground v.1.15,2013-06-03 13:00:00,
2013-06-03 09:10:00,56.0,42.3,30.02,NNW,345,5.0,5.0,60,0.00,,,0.00,Wunderground v.1.15,2013-06-03 13:10:00,
2013-06-03 09:20:00,56.8,41.7,30.02,NNE,26,6.0,6.0,57,0.00,,,0.00,Wunderground v.1.15,2013-06-03 13:20:00,
2013-06-03 09:25:00,57.0,41.9,30.02,NNE,28,6.0,9.0,57,0.00,,,0.00,Wunderground v.1.15,2013-06-03 13:25:00,
2013-06-03 09:35:00,57.3,41.3,30.03,NNE,17,7.0,7.0,55,0.00,,,0.00,Wunderground v.1.15,2013-06-03 13:35:00,
2013-06-03 09:40:00,57.4,40.4,30.03,NNE,28,8.0,8.0,53,0.00,,,0.00,Wunderground v.1.15,2013-06-03 13:40:00,
2013-06-03 09:45:00,57.6,40.6,30.03,North,11,7.0,8.0,53,0.00,,,0.00,Wunderground v.1.15,2013-06-03 13:45:00,
2013-06-03 09:55:00,57.6,38.6,30.03,NE,40,6.0,7.0,49,0.00,,,0.00,Wunderground v.1.15,2013-06-03 13:55:00,
2013-06-03 10:00:00,58.0,41.4,30.03,NNW,346,6.0,8.0,54,0.00,,,0.00,Wunderground v.1.15,2013-06-03 14:00:00,
2013-06-03 10:10:00,58.2,41.6,30.03,NNE,24,7.0,9.0,54,0.00,,,0.00,Wunderground v.1.15,2013-06-03 14:10:00,
2013-06-03 10:15:00,58.4,43.7,30.03,North,5,7.0,9.0,58,0.00,,,0.00,Wunderground v.1.15,2013-06-03 14:15:00,
2013-06-03 10:25:00,58.7,41.6,30.03,NNE,24,6.0,6.0,53,0.00,,,0.00,Wunderground v.1.15,2013-06-03 14:25:00,
2013-06-03 10:30:00,58.8,43.1,30.03,NNE,15,6.0,6.0,56,0.00,,,0.00,Wunderground v.1.15,2013-06-03 14:30:00,
2013-06-03 10:40:00,58.9,42.8,30.03,NNE,21,6.0,7.0,55,0.00,,,0.00,Wunderground v.1.15,2013-06-03 14:40:00,
2013-06-03 10:45:00,59.1,42.5,30.03,North,5,5.0,7.0,54,0.00,,,0.00,Wunderground v.1.15,2013-06-03 14:45:00,
2013-06-03 10:55:00,59.0,41.4,30.04,NNE,18,5.0,9.0,52,0.00,,,0.00,Wunderground v.1.15,2013-06-03 14:55:00,
2013-06-03 11:00:00,59.4,40.7,30.04,North,9,6.0,6.0,50,0.00,,,0.00,Wunderground v.1.15,2013-06-03 15:00:00,
2013-06-03 11:10:00,59.8,42.1,30.04,NNE,28,4.0,8.0,52,0.00,,,0.00,Wunderground v.1.15,2013-06-03 15:10:00,
2013-06-03 11:20:00,59.8,41.1,30.04,NE,38,5.0,6.0,50,0.00,,,0.00,Wunderground v.1.15,2013-06-03 15:20:00,
2013-06-03 11:25:00,60.0,41.3,30.04,NE,41,4.0,6.0,50,0.00,,,0.00,Wunderground v.1.15,2013-06-03 15:25:00,
2013-06-03 11:35:00,60.4,43.7,30.04,ENE,74,3.0,7.0,54,0.00,,,0.00,Wunderground v.1.15,2013-06-03 15:35:00,
2013-06-03 11:40:00,60.4,43.7,30.05,North,5,4.0,5.0,54,0.00,,,0.00,Wunderground v.1.15,2013-06-03 15:40:00,
2013-06-03 11:50:00,60.6,42.9,30.05,ENE,69,4.0,4.0,52,0.00,,,0.00,Wunderground v.1.15,2013-06-03 15:50:00,
2013-06-03 11:55:00,60.3,42.6,30.05,WNW,298,4.0,4.0,52,0.00,,,0.00,Wunderground v.1.15,2013-06-03 15:55:00,
2013-06-03 12:05:00,60.4,43.7,30.05,NE,46,4.0,6.0,54,0.00,,,0.00,Wunderground v.1.15,2013-06-03 16:05:00,
2013-06-03 12:15:00,60.3,45.5,30.04,ESE,122,5.0,6.0,58,0.00,,,0.00,Wunderground v.1.15,2013-06-03 16:15:00,
2013-06-03 12:25:00,59.7,42.0,30.05,East,82,6.0,6.0,52,0.00,,,0.00,Wunderground v.1.15,2013-06-03 16:25:00,
2013-06-03 12:35:00,60.1,42.4,30.05,ESE,120,6.0,7.0,52,0.00,,,0.00,Wunderground v.1.15,2013-06-03 16:35:00,
2013-06-03 12:40:00,60.0,41.8,30.05,East,85,6.0,7.0,51,0.00,,,0.00,Wunderground v.1.15,2013-06-03 16:40:00,
2013-06-03 12:50:00,60.3,42.6,30.05,ESE,103,5.0,7.0,52,0.00,,,0.00,Wunderground v.1.15,2013-06-03 16:50:00,
2013-06-03 13:00:00,60.2,43.0,30.05,ENE,67,5.0,5.0,53,0.00,,,0.00,Wunderground v.1.15,2013-06-03 17:00:00,
2013-06-03 13:10:00,60.8,43.1,30.05,SE,139,5.0,5.0,52,0.00,,,0.00,Wunderground v.1.15,2013-06-03 17:10:00,
2013-06-03 13:15:00,60.7,42.5,30.05,ENE,65,5.0,5.0,51,0.00,,,0.00,Wunderground v.1.15,2013-06-03 17:15:00,
2013-06-03 13:25:00,61.2,44.4,30.05,ENE,76,4.0,5.0,54,0.00,,,0.00,Wunderground v.1.15,2013-06-03 17:25:00,
2013-06-03 13:30:00,61.2,42.9,30.05,ENE,57,4.0,4.0,51,0.00,,,0.00,Wunderground v.1.15,2013-06-03 17:30:00,
2013-06-03 13:40:00,60.7,43.0,30.04,ENE,69,5.0,5.0,52,0.00,,,0.00,Wunderground v.1.15,2013-06-03 17:40:00,
2013-06-03 13:45:00,60.8,44.5,30.04,ENE,64,5.0,5.0,55,0.00,,,0.00,Wunderground v.1.15,2013-06-03 17:45:00,
2013-06-03 13:54:00,61.3,45.9,30.04,SE,132,5.0,5.0,57,0.00,,,0.00,Wunderground v.1.15,2013-06-03 17:54:00,
2013-06-03 13:59:00,61.4,45.1,30.03,ENE,67,4.0,13.0,55,0.00,,,0.00,Wunderground v.1.15,2013-06-03 17:59:00,
2013-06-03 14:09:00,60.4,44.2,30.03,NE,50,5.0,5.0,55,0.00,,,0.00,Wunderground v.1.15,2013-06-03 18:09:00,
2013-06-03 14:14:00,61.0,45.2,30.03,ENE,71,3.0,5.0,56,0.00,,,0.00,Wunderground v.1.15,2013-06-03 18:14:00,
2013-06-03 14:24:00,61.6,44.8,30.02,East,91,5.0,7.0,54,0.00,,,0.00,Wunderground v.1.15,2013-06-03 18:24:00,
2013-06-03 14:34:00,61.6,46.7,30.02,SE,136,5.0,9.0,58,0.00,,,0.00,Wunderground v.1.15,2013-06-03 18:34:00,
2013-06-03 14:39:00,62.0,45.6,30.02,East,84,5.0,7.0,55,0.00,,,0.00,Wunderground v.1.15,2013-06-03 18:39:00,
2013-06-03 14:49:00,62.1,46.7,30.01,East,82,5.0,8.0,57,0.00,,,0.00,Wunderground v.1.15,2013-06-03 18:49:00,
2013-06-03 14:59:00,62.4,45.0,30.01,ESE,112,6.0,7.0,53,0.00,,,0.00,Wunderground v.1.15,2013-06-03 18:59:00,
2013-06-03 15:09:00,62.5,44.6,30.01,East,84,6.0,6.0,52,0.00,,,0.00,Wunderground v.1.15,2013-06-03 19:09:00,
2013-06-03 15:14:00,62.6,45.7,30.01,East,84,5.0,6.0,54,0.00,,,0.00,Wunderground v.1.15,2013-06-03 19:14:00,
2013-06-03 15:24:00,62.7,45.8,30.00,ENE,71,5.0,5.0,54,0.00,,,0.00,Wunderground v.1.15,2013-06-03 19:24:00,
2013-06-03 15:29:00,63.2,47.2,30.00,East,96,4.0,4.0,56,0.00,,,0.00,Wunderground v.1.15,2013-06-03 19:29:00,
2013-06-03 15:39:00,63.3,45.9,30.00,ENE,76,5.0,5.0,53,0.00,,,0.00,Wunderground v.1.15,2013-06-03 19:39:00,
2013-06-03 15:49:00,63.1,46.2,30.00,East,86,7.0,7.0,54,0.00,,,0.00,Wunderground v.1.15,2013-06-03 19:49:00,
2013-06-03 15:59:00,63.5,46.1,29.99,SE,134,4.0,4.0,53,0.00,,,0.00,Wunderground v.1.15,2013-06-03 19:59:00,
2013-06-03 16:09:00,64.3,45.8,29.99,East,92,3.0,5.0,51,0.00,,,0.00,Wunderground v.1.15,2013-06-03 20:09:00,
2013-06-03 16:19:00,64.7,47.2,29.99,ENE,74,3.0,11.0,53,0.00,,,0.00,Wunderground v.1.15,2013-06-03 20:19:00,
2013-06-03 16:24:00,64.0,46.5,29.99,ENE,66,6.0,11.0,53,0.00,,,0.00,Wunderground v.1.15,2013-06-03 20:24:00,
2013-06-03 16:29:00,63.8,47.3,29.99,ENE,69,8.0,8.0,55,0.00,,,0.00,Wunderground v.1.15,2013-06-03 20:29:00,
2013-06-03 16:39:00,64.0,45.5,29.99,East,79,5.0,5.0,51,0.00,,,0.00,Wunderground v.1.15,2013-06-03 20:39:00,
2013-06-03 16:49:00,64.9,46.8,29.99,East,91,1.0,1.0,52,0.00,,,0.00,Wunderground v.1.15,2013-06-03 20:49:00,
2013-06-03 16:59:00,65.2,47.1,29.99,SE,138,3.0,5.0,52,0.00,,,0.00,Wunderground v.1.15,2013-06-03 20:59:00,
2013-06-03 17:09:00,65.6,48.0,29.99,ENE,65,5.0,5.0,53,0.00,,,0.00,Wunderground v.1.15,2013-06-03 21:09:00,
2013-06-03 17:19:00,65.0,48.4,29.99,SE,142,6.0,6.0,55,0.00,,,0.00,Wunderground v.1.15,2013-06-03 21:19:00,
2013-06-03 17:29:00,65.3,46.7,29.99,SE,138,4.0,6.0,51,0.00,,,0.00,Wunderground v.1.15,2013-06-03 21:29:00,
2013-06-03 17:39:00,65.5,48.4,29.98,ESE,123,5.0,5.0,54,0.00,,,0.00,Wunderground v.1.15,2013-06-03 21:39:00,
2013-06-03 17:49:00,65.2,47.6,29.98,East,84,5.0,10.0,53,0.00,,,0.00,Wunderground v.1.15,2013-06-03 21:49:00,
2013-06-03 17:59:00,64.7,47.2,29.98,East,90,5.0,6.0,53,0.00,,,0.00,Wunderground v.1.15,2013-06-03 21:59:00,
2013-06-03 18:09:00,65.1,46.0,29.98,East,83,4.0,4.0,50,0.00,,,0.00,Wunderground v.1.15,2013-06-03 22:09:00,
2013-06-03 18:19:00,65.4,46.8,29.99,ENE,71,4.0,4.0,51,0.00,,,0.00,Wunderground v.1.15,2013-06-03 22:19:00,
2013-06-03 18:29:00,65.8,46.1,29.99,SE,129,3.0,3.0,49,0.00,,,0.00,Wunderground v.1.15,2013-06-03 22:29:00,
2013-06-03 18:39:00,65.9,47.3,29.99,SE,142,3.0,3.0,51,0.00,,,0.00,Wunderground v.1.15,2013-06-03 22:39:00,
2013-06-03 18:49:00,66.5,45.1,29.99,West,273,2.0,5.0,46,0.00,,,0.00,Wunderground v.1.15,2013-06-03 22:49:00,
2013-06-03 18:59:00,66.5,42.7,29.99,North,355,6.0,6.0,42,0.00,,,0.00,Wunderground v.1.15,2013-06-03 22:59:00,
2013-06-03 19:09:00,67.0,41.2,29.99,NW,312,6.0,9.0,39,0.00,,,0.00,Wunderground v.1.15,2013-06-03 23:09:00,
2013-06-03 19:19:00,67.4,42.2,29.99,WNW,300,7.0,7.0,40,0.00,,,0.00,Wunderground v.1.15,2013-06-03 23:19:00,
2013-06-03 19:29:00,67.4,40.9,29.99,NW,313,6.0,8.0,38,0.00,,,0.00,Wunderground v.1.15,2013-06-03 23:29:00,
2013-06-03 19:34:00,67.4,40.9,30.00,NNW,329,8.0,9.0,38,0.00,,,0.00,Wunderground v.1.15,2013-06-03 23:34:00,
2013-06-03 19:44:00,67.2,41.4,30.00,NW,314,6.0,8.0,39,0.00,,,0.00,Wunderground v.1.15,2013-06-03 23:44:00,
2013-06-03 19:49:00,67.0,41.2,30.00,NW,308,6.0,6.0,39,0.00,,,0.00,Wunderground v.1.15,2013-06-03 23:49:00,
2013-06-03 19:54:00,66.9,41.8,30.00,NW,315,6.0,6.0,40,0.00,,,0.00,Wunderground v.1.15,2013-06-03 23:54:00,
2013-06-03 19:59:00,66.7,41.6,30.00,NNW,331,7.0,7.0,40,0.00,,,0.00,Wunderground v.1.15,2013-06-03 23:59:00,
2013-06-03 20:09:00,66.5,42.1,30.00,NNW,327,6.0,6.0,41,0.00,,,0.00,Wunderground v.1.15,2013-06-04 00:09:00,
2013-06-03 20:19:00,66.1,42.3,30.00,NW,319,5.0,5.0,42,0.00,,,0.00,Wunderground v.1.15,2013-06-04 00:19:00,
2013-06-03 20:24:00,65.9,42.8,30.00,NW,316,4.0,5.0,43,0.00,,,0.00,Wunderground v.1.15,2013-06-04 00:24:00,
2013-06-03 20:34:00,65.2,43.9,30.00,NW,323,5.0,5.0,46,0.00,,,0.00,Wunderground v.1.15,2013-06-04 00:34:00,
2013-06-03 20:44:00,64.5,43.3,30.01,NW,317,4.0,4.0,46,0.00,,,0.00,Wunderground v.1.15,2013-06-04 00:44:00,
2013-06-03 20:49:00,64.0,43.4,30.01,NW,313,4.0,4.0,47,0.00,,,0.00,Wunderground v.1.15,2013-06-04 00:49:00,
2013-06-03 20:54:00,63.5,43.4,30.01,NW,319,4.0,4.0,48,0.00,,,0.00,Wunderground v.1.15,2013-06-04 00:54:00,
2013-06-03 20:59:00,63.1,44.7,30.01,NW,319,4.0,4.0,51,0.00,,,0.00,Wunderground v.1.15,2013-06-04 00:59:00,
2013-06-03 21:09:00,62.0,44.7,30.01,NW,319,2.0,2.0,53,0.00,,,0.00,Wunderground v.1.15,2013-06-04 01:09:00,
2013-06-03 21:19:00,61.1,43.3,30.01,NW,319,1.0,1.0,52,0.00,,,0.00,Wunderground v.1.15,2013-06-04 01:19:00,
2013-06-03 21:29:00,60.8,45.9,30.01,NW,319,1.0,1.0,58,0.00,,,0.00,Wunderground v.1.15,2013-06-04 01:29:00,
2013-06-03 21:39:00,59.8,45.9,30.01,NW,319,1.0,1.0,60,0.00,,,0.00,Wunderground v.1.15,2013-06-04 01:39:00,
2013-06-03 21:49:00,58.9,48.4,30.02,NW,319,0.0,0.0,68,0.00,,,0.00,Wunderground v.1.15,2013-06-04 01:49:00,
2013-06-03 21:59:00,57.8,47.3,30.03,NW,319,0.0,0.0,68,0.00,,,0.00,Wunderground v.1.15,2013-06-04 01:59:00,
2013-06-03 22:09:00,57.6,48.3,30.03,NW,319,0.0,0.0,71,0.00,,,0.00,Wunderground v.1.15,2013-06-04 02:09:00,
2013-06-03 22:19:00,56.8,47.9,30.03,NW,319,0.0,0.0,72,0.00,,,0.00,Wunderground v.1.15,2013-06-04 02:19:00,
2013-06-03 22:29:00,56.2,48.0,30.04,NW,319,0.0,0.0,74,0.00,,,0.00,Wunderground v.1.15,2013-06-04 02:29:00,
2013-06-03 22:34:00,55.9,47.7,30.04,NW,319,0.0,0.0,74,0.00,,,0.00,Wunderground v.1.15,2013-06-04 02:34:00,
2013-06-03 22:44:00,55.5,48.1,30.05,NW,319,0.0,0.0,76,0.00,,,0.00,Wunderground v.1.15,2013-06-04 02:44:00,
2013-06-03 22:49:00,55.1,47.7,30.05,NW,319,0.0,0.0,76,0.00,,,0.00,Wunderground v.1.15,2013-06-04 02:49:00,
2013-06-03 22:59:00,54.3,47.6,30.06,NW,319,0.0,0.0,78,0.00,,,0.00,Wunderground v.1.15,2013-06-04 02:59:00,
2013-06-03 23:09:00,53.7,48.0,30.06,NW,319,0.0,0.0,81,0.00,,,0.00,Wunderground v.1.15,2013-06-04 03:09:00,
2013-06-03 23:19:00,53.4,47.7,30.06,NW,319,0.0,0.0,81,0.00,,,0.00,Wunderground v.1.15,2013-06-04 03:19:00,
2013-06-03 23:29:00,53.2,47.8,30.06,NW,319,0.0,0.0,82,0.00,,,0.00,Wunderground v.1.15,2013-06-04 03:29:00,
2013-06-03 23:39:00,53.1,48.1,30.06,NW,319,0.0,0.0,83,0.00,,,0.00,Wunderground v.1.15,2013-06-04 03:39:00,
2013-06-03 23:44:00,53.0,48.0,30.06,NW,319,0.0,0.0,83,0.00,,,0.00,Wunderground v.1.15,2013-06-04 03:44:00,
2013-06-03 23:54:00,52.8,48.1,30.06,NW,319,0.0,0.0,84,0.00,,,0.00,Wunderground v.1.15,2013-06-04 03:54:00,
2013-06-03 23:59:00,52.7,48.3,30.06,NW,319,0.0,0.0,85,0.00,,,0.00,Wunderground v.1.15,2013-06-04 03:59:00,